createdAt,value
2023-10-23T00:02:18.567Z,83.37
2023-10-23T00:05:06.776Z,83.34
2023-10-23T00:07:48.538Z,83.32
2023-10-23T00:10:43.574Z,83.30
2023-10-23T00:13:38.548Z,83.49
2023-10-23T00:16:33.671Z,83.36
2023-10-23T00:19:29.546Z,83.25
2023-10-23T00:22:17.555Z,83.37
2023-10-23T00:24:59.592Z,83.76
2023-10-23T00:27:54.594Z,83.93
2023-10-23T00:30:43.651Z,84.31
2023-10-23T00:33:25.741Z,84.23
2023-10-23T00:36:13.559Z,84.22
2023-10-23T00:38:55.544Z,84.45
2023-10-23T00:41:43.566Z,84.48
2023-10-23T00:44:18.664Z,84.44
2023-10-23T00:47:06.588Z,84.33
2023-10-23T00:49:41.670Z,84.43
2023-10-23T00:52:29.537Z,84.36
2023-10-23T00:55:05.046Z,84.17
2023-10-23T00:57:52.611Z,84.42
2023-10-23T01:00:27.908Z,84.55
2023-10-23T01:03:15.661Z,84.50
2023-10-23T01:05:50.743Z,84.75
2023-10-23T01:08:38.556Z,84.60
2023-10-23T01:11:19.750Z,84.68
2023-10-23T01:14:00.568Z,84.77
2023-10-23T01:16:41.721Z,84.80
2023-10-23T01:19:36.575Z,84.85
2023-10-23T01:22:24.557Z,84.83
2023-10-23T01:24:59.859Z,84.95
2023-10-23T01:27:47.590Z,84.96
2023-10-23T01:30:22.741Z,84.95
2023-10-23T01:33:10.582Z,85.08
2023-10-23T01:35:45.689Z,85.03
2023-10-23T01:38:33.547Z,84.89
2023-10-23T01:41:08.684Z,84.92
2023-10-23T01:43:56.562Z,84.89
2023-10-23T01:46:31.709Z,84.94
2023-10-23T01:49:19.540Z,85.08
2023-10-23T01:51:53.717Z,85.12
2023-10-23T01:54:41.730Z,85.22
2023-10-23T01:57:16.808Z,84.99
2023-10-23T02:00:11.561Z,84.94
2023-10-23T02:02:46.714Z,84.92
2023-10-23T02:05:34.569Z,84.87
2023-10-23T02:08:10.335Z,85.10
2023-10-23T02:10:59.534Z,85.02
2023-10-23T02:13:34.696Z,85.03
2023-10-23T02:16:22.596Z,84.92
2023-10-23T02:18:57.745Z,84.81
2023-10-23T02:21:45.577Z,84.84
2023-10-23T02:24:30.584Z,84.83
2023-10-23T02:27:18.677Z,84.89
2023-10-23T02:29:53.794Z,84.88
2023-10-23T02:32:41.657Z,84.98
2023-10-23T02:35:22.678Z,85.12
2023-10-23T02:38:03.563Z,85.09
2023-10-23T02:40:44.660Z,85.23
2023-10-23T02:43:25.525Z,85.13
2023-10-23T02:46:17.551Z,85.22
2023-10-23T02:48:52.144Z,85.08
2023-10-23T02:51:40.644Z,84.87
2023-10-23T02:54:15.945Z,84.71
2023-10-23T02:57:03.545Z,84.77
2023-10-23T02:59:38.149Z,84.68
2023-10-23T03:02:26.548Z,84.61
2023-10-23T03:05:00.972Z,84.63
2023-10-23T03:07:48.562Z,84.66
2023-10-23T03:10:22.929Z,84.60
2023-10-23T03:13:10.576Z,84.50
2023-10-23T03:15:45.346Z,84.51
2023-10-23T03:18:33.694Z,84.42
2023-10-23T03:21:09.092Z,84.29
2023-10-23T03:23:56.609Z,84.39
2023-10-23T03:26:37.583Z,84.24
2023-10-23T03:29:18.769Z,84.17
2023-10-23T03:32:00.701Z,84.07
2023-10-23T03:34:41.731Z,84.26
2023-10-23T03:37:23.541Z,84.16
2023-10-23T03:40:04.777Z,84.31
2023-10-23T03:42:45.572Z,84.21
2023-10-23T03:45:26.667Z,84.24
2023-10-23T03:48:07.519Z,84.20
2023-10-23T03:50:55.557Z,83.93
2023-10-23T03:53:30.239Z,83.98
2023-10-23T03:56:21.537Z,83.99
2023-10-23T03:59:02.538Z,84.03
2023-10-23T04:01:50.549Z,84.21
2023-10-23T04:04:25.172Z,84.37
2023-10-23T04:07:13.585Z,84.56
2023-10-23T04:10:08.524Z,84.59
2023-10-23T04:12:56.542Z,84.49
2023-10-23T04:15:31.710Z,84.39
2023-10-23T04:18:19.520Z,84.35
2023-10-23T04:20:54.643Z,84.28
2023-10-23T04:23:43.541Z,84.25
2023-10-23T04:26:18.650Z,84.14
2023-10-23T04:29:06.549Z,84.27
2023-10-23T04:31:41.698Z,84.25
2023-10-23T04:34:29.551Z,84.25
2023-10-23T04:37:04.684Z,84.06
2023-10-23T04:39:52.584Z,83.80
2023-10-23T04:42:27.702Z,83.84
2023-10-23T04:45:16.534Z,83.83
2023-10-23T04:47:51.710Z,83.72
2023-10-23T04:50:40.545Z,83.51
2023-10-23T04:53:22.551Z,83.43
2023-10-23T04:56:19.554Z,83.42
2023-10-23T04:59:07.556Z,83.32
2023-10-23T05:01:42.711Z,83.36
2023-10-23T05:04:30.642Z,83.35
2023-10-23T05:07:05.724Z,83.36
2023-10-23T05:09:53.577Z,83.45
2023-10-23T05:12:29.924Z,83.36
2023-10-23T05:15:17.546Z,83.15
2023-10-23T05:17:52.760Z,83.18
2023-10-23T05:20:48.555Z,83.23
2023-10-23T05:23:29.922Z,83.44
2023-10-23T05:26:20.542Z,83.70
2023-10-23T05:29:02.541Z,83.77
2023-10-23T05:31:43.675Z,83.72
2023-10-23T05:34:24.544Z,83.68
2023-10-23T05:37:05.876Z,83.66
2023-10-23T05:39:47.554Z,83.52
2023-10-23T05:42:35.569Z,83.43
2023-10-23T05:45:10.779Z,83.39
2023-10-23T05:47:58.582Z,83.28
2023-10-23T05:50:32.979Z,83.34
2023-10-23T05:53:20.485Z,83.25
2023-10-23T05:55:55.403Z,83.25
2023-10-23T05:58:43.524Z,83.37
2023-10-23T06:01:18.452Z,83.45
2023-10-23T06:04:06.571Z,83.61
2023-10-23T06:06:41.076Z,83.65
2023-10-23T06:09:29.575Z,83.62
2023-10-23T06:12:12.508Z,83.56
2023-10-23T06:15:00.626Z,83.15
2023-10-23T06:17:42.516Z,82.91
2023-10-23T06:20:37.500Z,82.70
2023-10-23T06:23:25.868Z,82.58
2023-10-23T06:26:10.693Z,82.43
2023-10-23T06:28:58.550Z,82.00
2023-10-23T06:31:33.744Z,81.85
2023-10-23T06:34:21.512Z,81.69
2023-10-23T06:37:04.651Z,81.36
2023-10-23T06:40:00.967Z,81.08
2023-10-23T06:42:48.498Z,80.67
2023-10-23T06:45:37.766Z,80.51
2023-10-23T06:48:52.533Z,80.27
2023-10-23T06:51:40.517Z,80.09
2023-10-23T06:54:15.699Z,79.85
2023-10-23T06:57:03.520Z,79.47
2023-10-23T06:59:38.952Z,79.26
2023-10-23T07:02:27.524Z,78.90
2023-10-23T07:05:02.873Z,78.57
2023-10-23T07:07:51.500Z,78.15
2023-10-23T07:10:26.610Z,78.22
2023-10-23T07:13:22.032Z,78.03
2023-10-23T07:15:58.832Z,78.00
2023-10-23T07:18:46.675Z,77.97
2023-10-23T07:21:31.530Z,78.23
2023-10-23T07:24:48.146Z,78.17
2023-10-23T07:27:59.561Z,78.34
2023-10-23T07:30:34.638Z,78.41
2023-10-23T07:33:22.537Z,77.90
2023-10-23T07:36:13.568Z,77.98
2023-10-23T07:39:08.488Z,77.75
2023-10-23T07:41:56.474Z,77.69
2023-10-23T07:44:37.516Z,77.35
2023-10-23T07:47:32.497Z,76.81
2023-10-23T07:50:20.523Z,75.48
2023-10-23T07:52:55.718Z,75.10
2023-10-23T07:55:45.473Z,74.47
2023-10-23T07:58:26.664Z,73.15
2023-10-23T08:01:13.771Z,73.54
2023-10-23T08:03:54.727Z,73.58
2023-10-23T08:06:36.527Z,73.43
2023-10-23T08:09:25.467Z,73.05
2023-10-23T08:12:06.493Z,72.73
2023-10-23T08:14:52.767Z,72.46
2023-10-23T08:17:42.184Z,71.92
2023-10-23T08:20:31.457Z,70.78
2023-10-23T08:23:19.497Z,71.04
2023-10-23T08:25:54.605Z,71.06
2023-10-23T08:31:37.506Z,70.75
2023-10-23T08:34:29.638Z,69.34
2023-10-23T08:37:05.107Z,67.83
2023-10-23T08:39:53.797Z,67.66
2023-10-23T08:42:28.927Z,68.05
2023-10-23T08:45:16.490Z,67.19
2023-10-23T08:47:58.720Z,67.56
2023-10-23T08:50:40.706Z,68.25
2023-10-23T08:53:22.643Z,68.90
2023-10-23T08:56:03.499Z,68.98
2023-10-23T08:58:52.466Z,68.93
2023-10-23T09:01:37.026Z,69.17
2023-10-23T09:04:25.753Z,68.93
2023-10-23T09:07:01.913Z,68.44
2023-10-23T09:09:50.516Z,68.35
2023-10-23T09:12:39.475Z,67.76
2023-10-23T09:15:26.249Z,68.41
2023-10-23T09:18:10.846Z,68.24
2023-10-23T09:21:05.764Z,68.00
2023-10-23T09:24:11.690Z,67.75
2023-10-23T09:26:46.614Z,67.58
2023-10-23T09:29:35.497Z,66.66
2023-10-23T09:32:10.663Z,66.98
2023-10-23T09:34:58.504Z,66.68
2023-10-23T09:37:35.694Z,66.26
2023-10-23T09:40:25.814Z,65.68
2023-10-23T09:43:02.550Z,64.55
2023-10-23T09:45:50.528Z,63.67
2023-10-23T09:48:25.711Z,63.16
2023-10-23T09:51:13.478Z,63.20
2023-10-23T09:53:50.628Z,63.34
2023-10-23T09:56:39.734Z,62.99
2023-10-23T09:59:22.450Z,62.39
2023-10-23T10:02:13.560Z,61.37
2023-10-23T10:04:55.864Z,60.86
2023-10-23T10:07:50.776Z,60.77
2023-10-23T10:10:32.637Z,62.15
2023-10-23T10:13:28.502Z,63.16
2023-10-23T10:16:17.815Z,63.61
2023-10-23T10:18:53.940Z,63.14
2023-10-23T10:22:13.560Z,63.43
2023-10-23T10:24:49.810Z,63.44
2023-10-23T10:27:37.790Z,62.81
2023-10-23T10:30:14.594Z,62.35
2023-10-23T10:34:18.432Z,61.11
2023-10-23T10:36:13.709Z,61.30
2023-10-23T10:39:02.454Z,60.40
2023-10-23T10:41:41.878Z,59.50
2023-10-23T10:44:30.470Z,59.63
2023-10-23T10:47:05.649Z,58.56
2023-10-23T10:49:55.484Z,57.96
2023-10-23T10:52:34.693Z,57.33
2023-10-23T10:55:25.554Z,56.81
2023-10-23T10:58:01.500Z,57.06
2023-10-23T11:00:49.516Z,56.14
2023-10-23T11:03:26.044Z,54.95
2023-10-23T11:06:15.837Z,54.91
2023-10-23T11:08:50.597Z,54.71
2023-10-23T11:11:38.530Z,55.06
2023-10-23T11:14:13.869Z,54.94
2023-10-23T11:17:01.623Z,54.92
2023-10-23T11:19:36.675Z,55.57
2023-10-23T11:22:34.518Z,55.56
2023-10-23T11:25:10.596Z,55.00
2023-10-23T11:27:59.712Z,54.60
2023-10-23T11:30:35.996Z,54.54
2023-10-23T11:33:26.866Z,55.19
2023-10-23T11:36:02.303Z,54.50
2023-10-23T11:38:52.503Z,54.47
2023-10-23T11:41:29.721Z,54.31
2023-10-23T11:44:17.468Z,55.26
2023-10-23T11:46:52.779Z,55.13
2023-10-23T11:49:40.633Z,55.11
2023-10-23T11:52:22.609Z,55.57
2023-10-23T11:55:14.562Z,56.58
2023-10-23T11:57:52.739Z,56.16
2023-10-23T12:00:42.482Z,56.18
2023-10-23T12:03:17.639Z,55.59
2023-10-23T12:06:06.542Z,55.52
2023-10-23T12:08:41.952Z,55.85
2023-10-23T12:11:29.494Z,56.34
2023-10-23T12:14:04.650Z,56.39
2023-10-23T12:16:52.511Z,56.86
2023-10-23T12:19:27.655Z,56.45
2023-10-23T12:22:15.525Z,57.05
2023-10-23T12:24:50.642Z,56.57
2023-10-23T12:27:40.474Z,55.90
2023-10-23T12:30:28.979Z,55.94
2023-10-23T12:33:30.308Z,56.00
2023-10-23T12:36:23.477Z,56.06
2023-10-23T12:38:57.681Z,56.01
2023-10-23T12:41:45.542Z,55.95
2023-10-23T12:44:20.786Z,56.52
2023-10-23T12:47:08.570Z,56.82
2023-10-23T12:49:44.132Z,56.55
2023-10-23T12:52:32.479Z,55.91
2023-10-23T12:55:07.623Z,56.43
2023-10-23T12:57:55.640Z,56.15
2023-10-23T13:00:30.768Z,55.05
2023-10-23T13:03:18.492Z,54.05
2023-10-23T13:05:53.589Z,53.89
2023-10-23T13:08:41.522Z,53.34
2023-10-23T13:11:16.633Z,51.86
2023-10-23T13:14:05.469Z,50.13
2023-10-23T13:16:40.721Z,46.97
2023-10-23T13:19:28.503Z,43.82
2023-10-23T13:22:11.593Z,41.93
2023-10-23T13:25:00.466Z,39.60
2023-10-23T13:27:42.482Z,38.78
2023-10-23T13:30:37.501Z,38.92
2023-10-23T13:33:26.460Z,39.30
2023-10-23T13:36:01.653Z,40.26
2023-10-23T13:38:49.481Z,40.87
2023-10-23T13:41:24.612Z,39.43
2023-10-23T13:44:12.476Z,40.06
2023-10-23T13:46:54.576Z,40.63
2023-10-23T13:49:49.575Z,41.27
2023-10-23T13:52:38.486Z,41.61
2023-10-23T13:55:13.690Z,41.92
2023-10-23T13:58:01.519Z,42.68
2023-10-23T14:00:36.615Z,43.54
2023-10-23T14:03:27.576Z,45.03
2023-10-23T14:06:11.513Z,45.32
2023-10-23T14:09:42.420Z,45.81
2023-10-23T14:12:02.159Z,47.36
2023-10-23T14:14:50.584Z,48.19
2023-10-23T14:17:26.369Z,48.39
2023-10-23T14:20:23.739Z,48.54
2023-10-23T14:23:19.528Z,49.29
2023-10-23T14:26:08.730Z,50.05
2023-10-23T14:28:50.565Z,51.13
2023-10-23T14:31:45.633Z,51.34
2023-10-23T14:34:33.718Z,51.72
2023-10-23T14:37:09.006Z,52.06
2023-10-23T14:39:59.389Z,52.34
2023-10-23T14:42:34.961Z,52.30
2023-10-23T14:45:22.584Z,53.10
2023-10-23T14:48:04.269Z,53.86
2023-10-23T14:50:45.592Z,54.31
2023-10-23T14:53:27.892Z,55.42
2023-10-23T14:56:16.566Z,55.51
2023-10-23T14:58:57.777Z,55.55
2023-10-23T15:01:39.606Z,55.65
2023-10-23T15:04:21.672Z,55.93
2023-10-23T15:07:03.651Z,55.95
2023-10-23T15:09:44.603Z,56.10
2023-10-23T15:12:25.478Z,56.19
2023-10-23T15:15:13.475Z,56.75
2023-10-23T15:17:48.034Z,57.03
2023-10-23T15:20:37.832Z,57.36
2023-10-23T15:23:32.702Z,57.73
2023-10-23T15:26:20.495Z,58.13
2023-10-23T15:28:55.772Z,58.41
2023-10-23T15:31:43.540Z,58.94
2023-10-23T15:34:18.721Z,59.89
2023-10-23T15:37:06.559Z,60.62
2023-10-23T15:39:46.212Z,60.89
2023-10-23T15:42:36.497Z,61.54
2023-10-23T15:45:12.372Z,62.10
2023-10-23T15:48:07.545Z,62.63
2023-10-23T15:50:49.488Z,63.12
2023-10-23T15:53:37.532Z,63.71
2023-10-23T15:56:12.674Z,64.44
2023-10-23T15:59:00.499Z,65.04
2023-10-23T16:01:35.836Z,66.05
2023-10-23T16:04:23.536Z,66.85
2023-10-23T16:07:05.567Z,67.39
2023-10-23T16:10:00.535Z,67.30
2023-10-23T16:12:50.501Z,67.34
2023-10-23T16:15:27.623Z,67.42
2023-10-23T16:18:19.510Z,67.28
2023-10-23T16:20:58.558Z,67.02
2023-10-23T16:23:46.493Z,67.28
2023-10-23T16:26:21.664Z,68.25
2023-10-23T16:29:09.619Z,68.93
2023-10-23T16:31:51.613Z,68.98
2023-10-23T16:34:46.558Z,68.09
2023-10-23T16:37:40.267Z,67.76
2023-10-23T16:40:16.715Z,67.59
2023-10-23T16:43:07.552Z,67.42
2023-10-23T16:45:48.634Z,67.41
2023-10-23T16:48:29.496Z,67.56
2023-10-23T16:51:36.048Z,68.35
2023-10-23T16:54:26.504Z,68.45
2023-10-23T16:57:21.494Z,68.64
2023-10-23T17:00:11.329Z,68.33
2023-10-23T17:02:46.731Z,67.72
2023-10-23T17:05:35.515Z,67.52
2023-10-23T17:08:10.665Z,67.83
2023-10-23T17:10:58.502Z,67.87
2023-10-23T17:13:33.741Z,67.66
2023-10-23T17:16:21.531Z,67.62
2023-10-23T17:18:56.709Z,67.55
2023-10-23T17:21:51.823Z,67.50
2023-10-23T17:24:46.533Z,67.50
2023-10-23T17:27:35.543Z,67.63
2023-10-23T17:30:11.864Z,67.74
2023-10-23T17:33:00.611Z,67.50
2023-10-23T17:35:35.937Z,67.30
2023-10-23T17:38:25.531Z,67.28
2023-10-23T17:41:00.660Z,67.23
2023-10-23T17:43:49.342Z,67.14
2023-10-23T17:46:24.900Z,67.26
2023-10-23T17:49:19.723Z,67.40
2023-10-23T17:51:56.065Z,67.25
2023-10-23T17:54:46.630Z,67.28
2023-10-23T17:57:29.754Z,67.39
2023-10-23T18:00:28.993Z,67.65
2023-10-23T18:03:17.774Z,68.41
2023-10-23T18:05:53.313Z,68.88
2023-10-23T18:08:42.501Z,69.16
2023-10-23T18:11:20.465Z,69.63
2023-10-23T18:14:08.525Z,69.91
2023-10-23T18:16:43.865Z,70.12
2023-10-23T18:19:32.665Z,70.30
2023-10-23T18:22:15.482Z,70.71
2023-10-23T18:25:11.604Z,70.97
2023-10-23T18:28:01.607Z,71.29
2023-10-23T18:30:38.708Z,71.68
2023-10-23T18:33:26.488Z,71.98
2023-10-23T18:36:09.570Z,72.37
2023-10-23T18:38:51.464Z,72.59
2023-10-23T18:48:03.012Z,73.52
2023-10-23T18:50:51.631Z,73.60
2023-10-23T18:53:26.610Z,73.77
2023-10-23T18:56:14.476Z,73.98
2023-10-23T18:58:50.136Z,74.20
2023-10-23T19:01:39.329Z,74.12
2023-10-23T19:04:14.807Z,74.28
2023-10-23T19:07:02.773Z,74.36
2023-10-23T19:09:38.735Z,74.39
2023-10-23T19:12:28.745Z,74.66
2023-10-23T19:15:10.081Z,74.63
2023-10-23T19:17:53.395Z,74.91
2023-10-23T19:20:37.397Z,74.90
2023-10-23T19:23:19.765Z,75.02
2023-10-23T19:26:08.449Z,74.88
2023-10-23T19:28:49.750Z,74.89
2023-10-23T19:31:41.588Z,74.89
2023-10-23T19:34:17.112Z,75.00
2023-10-23T19:37:06.865Z,74.95
2023-10-23T19:39:42.421Z,74.97
2023-10-23T19:42:32.480Z,74.86
2023-10-23T19:45:09.082Z,75.06
2023-10-23T19:47:58.508Z,75.28
2023-10-23T19:50:46.062Z,75.57
2023-10-23T19:53:41.452Z,76.11
2023-10-23T19:56:32.864Z,76.70
2023-10-23T19:59:14.854Z,76.96
2023-10-23T20:01:56.621Z,76.98
2023-10-23T20:04:38.974Z,77.16
2023-10-23T20:07:20.512Z,77.25
2023-10-23T20:10:02.609Z,77.49
2023-10-23T20:12:43.535Z,77.57
2023-10-23T20:15:28.071Z,77.69
2023-10-23T20:18:09.658Z,78.04
2023-10-23T20:20:57.770Z,78.79
2023-10-23T20:23:34.265Z,79.01
2023-10-23T20:26:29.503Z,79.40
2023-10-23T20:29:03.889Z,79.65
2023-10-23T20:31:51.533Z,79.68
2023-10-23T20:34:32.814Z,79.95
2023-10-23T20:37:20.881Z,80.37
2023-10-23T20:39:57.087Z,80.56
2023-10-23T20:42:46.531Z,80.84
2023-10-23T20:45:22.115Z,80.87
2023-10-23T20:48:12.864Z,80.90
2023-10-23T20:51:01.749Z,81.12
2023-10-23T20:53:37.606Z,81.07
2023-10-23T20:56:28.138Z,80.69
2023-10-23T20:59:04.447Z,80.60
2023-10-23T21:01:53.536Z,80.88
2023-10-23T21:04:29.393Z,81.27
2023-10-23T21:07:18.497Z,81.23
2023-10-23T21:10:00.916Z,81.37
2023-10-23T21:12:56.000Z,81.68
2023-10-23T21:15:43.449Z,82.02
2023-10-23T21:18:25.447Z,82.27
2023-10-23T21:21:20.433Z,82.66
2023-10-23T21:24:08.438Z,82.85
2023-10-23T21:26:43.599Z,82.89
2023-10-23T21:29:32.461Z,82.81
2023-10-23T21:32:07.637Z,82.79
2023-10-23T21:34:55.467Z,82.36
2023-10-23T21:37:37.478Z,82.15
2023-10-23T21:40:25.459Z,82.12
2023-10-23T21:43:07.477Z,82.27
2023-10-23T21:49:05.495Z,82.98
2023-10-23T21:52:00.487Z,82.63
2023-10-23T21:54:48.478Z,82.55
2023-10-23T21:57:23.877Z,82.71
2023-10-23T22:00:17.477Z,82.73
2023-10-23T22:02:59.508Z,82.43
2023-10-23T22:05:56.437Z,82.10
2023-10-23T22:08:45.741Z,82.53
2023-10-23T22:11:21.568Z,83.05
2023-10-23T22:14:11.431Z,83.19
2023-10-23T22:16:47.090Z,83.44
2023-10-23T22:19:39.395Z,83.77
2023-10-23T22:22:14.596Z,83.53
2023-10-23T22:25:02.457Z,83.60
2023-10-23T22:27:44.452Z,83.57
2023-10-23T22:30:27.034Z,83.55
2023-10-23T22:33:16.474Z,83.62
2023-10-23T22:35:59.530Z,83.65
2023-10-23T22:38:40.745Z,83.66
2023-10-23T22:41:22.451Z,83.48
2023-10-23T22:44:10.463Z,83.20
2023-10-23T22:46:45.031Z,82.95
2023-10-23T22:49:33.494Z,82.98
2023-10-23T22:52:28.548Z,83.10
2023-10-23T22:55:18.484Z,83.21
2023-10-23T22:57:53.841Z,83.82
2023-10-23T23:00:41.456Z,83.79
2023-10-23T23:03:23.550Z,83.25
2023-10-23T23:06:13.456Z,83.18
2023-10-23T23:08:56.464Z,83.17
2023-10-23T23:11:51.465Z,82.69
2023-10-23T23:14:39.609Z,82.79
2023-10-23T23:17:14.677Z,83.14
2023-10-23T23:20:03.475Z,83.13
2023-10-23T23:22:38.726Z,82.70
2023-10-23T23:25:27.480Z,82.48
2023-10-23T23:28:02.572Z,82.51
2023-10-23T23:30:50.463Z,82.61
2023-10-23T23:33:32.554Z,82.55
2023-10-23T23:36:27.467Z,82.20
2023-10-23T23:39:17.450Z,81.93
2023-10-23T23:42:00.483Z,81.99
2023-10-23T23:44:55.453Z,82.02
2023-10-23T23:47:43.499Z,82.42
2023-10-23T23:50:38.445Z,82.37
2023-10-23T23:53:26.433Z,82.29
2023-10-23T23:56:00.584Z,82.32
2023-10-23T23:58:48.446Z,82.20
